Time;durP1;ratioP1;P1;durP2;ratioP2;P2;SDS_P1;SDS_P2;PMS_P1;PMS_P2;Temp;Humidity;BMP_temperature;BMP_pressure;BME280_temperature;BME280_humidity;BME280_pressure;Samples;Min_cycle;Max_cycle;Signal;HPM_P1;HPM_P2
2021/12/12 00:01:57;;;;;;;15.23;9.65;;;2.90;77.10;;;1.66;63.70;95424.34;5052009;28;20204;-88
2021/12/12 00:04:32;;;;;;;12.95;9.02;;;2.80;77.00;;;1.69;63.30;95429.25;5035650;28;20219;-89
2021/12/12 00:07:07;;;;;;;13.25;9.00;;;2.80;77.00;;;1.68;63.59;95430.19;5016285;28;20201;-88
2021/12/12 00:09:41;;;;;;;12.80;8.82;;;2.80;77.00;;;1.67;63.70;95433.75;5027533;28;20277;-88
2021/12/12 00:12:33;;;;;;;13.38;9.10;;;2.80;77.00;;;1.68;63.42;95426.78;5019231;28;20649;-88
2021/12/12 00:15:01;;;;;;;12.27;8.60;;;2.80;77.00;;;1.68;63.77;95432.78;5019386;28;20220;-88
2021/12/12 00:17:28;;;;;;;12.18;8.32;;;2.80;77.00;;;1.68;63.87;95421.63;5018788;28;20196;-88
2021/12/12 00:19:56;;;;;;;13.68;8.88;;;2.80;77.10;;;1.68;63.60;95426.78;5035391;28;20227;-88
2021/12/12 00:22:27;;;;;;;13.13;9.15;;;2.70;77.00;;;1.62;63.75;95424.72;5019015;28;20623;-88
2021/12/12 00:24:55;;;;;;;12.05;8.40;;;2.70;77.00;;;1.65;63.60;95424.44;5019047;28;20262;-87
2021/12/12 00:27:23;;;;;;;13.38;9.02;;;2.80;77.10;;;1.63;63.44;95421.19;5035103;28;20298;-87
2021/12/12 00:29:51;;;;;;;12.15;8.38;;;2.90;77.10;;;1.62;63.44;95422.94;5050070;28;20227;-88
2021/12/12 00:32:23;;;;;;;14.02;8.73;;;2.70;77.00;;;1.64;63.60;95428.00;5036081;28;20261;-88
2021/12/12 00:34:58;;;;;;;15.02;9.68;;;2.70;77.00;;;1.64;63.53;95426.22;5039292;28;20231;-88
2021/12/12 00:37:27;;;;;;;13.80;8.70;;;2.70;77.00;;;1.63;63.63;95423.78;5038408;28;20192;-88
2021/12/12 00:40:04;;;;;;;13.95;9.70;;;2.70;77.00;;;1.64;63.63;95423.63;5022374;28;20219;-88
2021/12/12 00:42:35;;;;;;;15.27;10.13;;;2.70;77.00;;;1.61;63.87;95421.28;5022227;28;20253;-88
2021/12/12 00:45:09;;;;;;;16.38;11.05;;;2.70;77.10;;;1.63;63.65;95421.19;5022172;28;20556;-88
2021/12/12 00:47:37;;;;;;;14.43;9.93;;;2.70;77.10;;;1.63;63.71;95429.75;5037876;28;20216;-88
2021/12/12 00:50:14;;;;;;;13.95;9.23;;;2.70;77.00;;;1.60;63.26;95432.59;5039065;28;20216;-88
2021/12/12 00:52:45;;;;;;;14.73;10.43;;;2.70;77.00;;;1.57;63.63;95423.28;5038557;28;20192;-88
2021/12/12 00:55:13;;;;;;;14.55;9.88;;;2.70;77.00;;;1.57;63.75;95425.06;5038240;28;20320;-89
2021/12/12 00:57:41;;;;;;;14.30;10.15;;;2.70;77.00;;;1.63;63.79;95441.88;5055159;28;20227;-88
2021/12/12 01:00:13;;;;;;;13.52;9.77;;;2.70;77.10;;;1.63;63.61;95431.53;5054345;28;20553;-88
2021/12/12 01:02:41;;;;;;;14.85;10.30;;;2.70;77.10;;;1.59;63.92;95431.75;5037254;28;20254;-88
2021/12/12 01:05:11;;;;;;;17.17;11.20;;;2.70;77.10;;;1.62;63.90;95435.84;5051490;28;20226;-88
2021/12/12 01:07:43;;;;;;;18.25;11.77;;;2.70;77.10;;;1.60;63.75;95438.56;5054441;28;20566;-88
2021/12/12 01:10:23;;;;;;;19.08;11.45;;;2.70;77.20;;;1.60;63.61;95435.19;5038428;28;20230;-88
2021/12/12 01:12:53;;;;;;;16.02;10.75;;;2.70;77.10;;;1.58;64.00;95429.31;5071733;28;20224;-88
2021/12/12 01:15:34;;;;;;;16.15;10.15;;;2.70;77.10;;;1.58;63.67;95432.69;5054793;28;20224;-88
2021/12/12 01:18:21;;;;;;;13.57;9.23;;;2.70;77.10;;;1.62;63.82;95441.03;5054376;28;20195;-88
2021/12/12 01:20:56;;;;;;;12.50;8.85;;;2.70;77.10;;;1.62;63.74;95440.22;5038390;28;20224;-88
2021/12/12 01:23:31;;;;;;;12.90;9.32;;;2.80;77.10;;;1.65;63.51;95439.97;5054938;28;20199;-88
2021/12/12 01:25:59;;;;;;;14.02;9.13;;;2.70;77.00;;;1.63;63.74;95434.09;5054073;28;20211;-87
2021/12/12 01:28:32;;;;;;;13.75;9.00;;;2.70;77.00;;;1.66;64.01;95441.59;5037217;28;20318;-89
2021/12/12 01:31:04;;;;;;;15.43;9.82;;;2.70;77.00;;;1.67;63.64;95443.25;5037087;28;20216;-88
2021/12/12 01:33:35;;;;;;;16.90;11.40;;;2.70;77.00;;;1.65;63.47;95440.78;5021790;28;20273;-88
2021/12/12 01:36:22;;;;;;;18.67;11.95;;;2.70;77.00;;;1.65;63.70;95445.13;5021646;28;20207;-87
2021/12/12 01:38:52;;;;;;;18.55;13.10;;;2.70;77.00;;;1.63;63.77;95434.09;5054376;28;20637;-87
2021/12/12 01:41:39;;;;;;;17.70;12.15;;;2.70;77.00;;;1.60;64.00;95433.41;5038097;28;20727;-88
2021/12/12 01:44:15;;;;;;;19.92;12.05;;;2.70;77.00;;;1.61;63.53;95439.38;5037955;28;20231;-88
2021/12/12 01:46:48;;;;;;;17.65;12.02;;;2.70;77.00;;;1.60;63.78;95438.56;5054316;28;20211;-88
2021/12/12 01:49:23;;;;;;;19.88;13.00;;;2.70;77.00;;;1.58;63.55;95440.44;5027141;28;20242;-88
2021/12/12 01:51:52;;;;;;;18.60;12.70;;;2.70;77.10;;;1.58;63.75;95437.88;5054659;28;20218;-88
2021/12/12 01:54:26;;;;;;;18.15;11.75;;;2.70;77.00;;;1.57;64.15;95438.81;5034676;28;20247;-89
2021/12/12 01:56:59;;;;;;;21.52;14.05;;;2.70;77.00;;;1.54;63.82;95433.91;5037689;28;20196;-89
2021/12/12 01:59:32;;;;;;;22.25;13.68;;;2.70;77.00;;;1.54;63.57;95435.69;5058087;28;20224;-89
2021/12/12 02:02:13;;;;;;;20.85;12.73;;;2.70;77.10;;;1.58;64.17;95426.72;5037567;28;20196;-88
2021/12/12 02:04:51;;;;;;;16.67;11.77;;;2.70;77.10;;;1.54;63.75;95436.47;5054017;28;20218;-88
2021/12/12 02:07:25;;;;;;;16.35;11.48;;;2.70;77.00;;;1.57;63.96;95428.47;5037437;28;20283;-87
2021/12/12 02:09:54;;;;;;;17.67;12.02;;;2.70;77.10;;;1.57;63.95;95428.47;5050231;28;20285;-88
2021/12/12 02:12:24;;;;;;;15.45;10.65;;;2.70;77.10;;;1.60;63.82;95433.41;5017119;28;20220;-88
2021/12/12 02:14:53;;;;;;;19.67;12.38;;;2.70;77.10;;;1.61;63.58;95441.97;5036704;28;20224;-88
2021/12/12 02:17:38;;;;;;;19.42;12.10;;;2.70;77.10;;;1.63;63.68;95449.63;5037549;28;20298;-88
2021/12/12 02:20:27;;;;;;;17.13;11.38;;;2.70;77.10;;;1.63;63.61;95444.44;5020622;28;20231;-87
2021/12/12 02:36:57;;;;;;;21.05;13.02;;;2.80;77.10;;;1.60;63.66;95425.66;5039351;28;20665;-87
2021/12/12 02:39:24;;;;;;;19.73;12.52;;;2.80;77.10;;;1.64;63.43;95440.94;5066159;28;20243;-87
2021/12/12 02:42:00;;;;;;;20.52;13.60;;;2.80;77.80;;;1.63;63.84;95434.09;5041212;28;20192;-87
2021/12/12 02:44:31;;;;;;;21.30;13.20;;;2.70;77.00;;;1.64;63.70;95435.75;5030066;28;20234;-86
2021/12/12 02:47:09;;;;;;;20.45;12.60;;;2.80;77.10;;;1.65;63.73;95435.63;5024597;28;20238;-85
2021/12/12 02:49:54;;;;;;;18.05;11.23;;;2.70;77.00;;;1.67;63.72;95440.66;5028917;28;20281;-87
2021/12/12 02:52:26;;;;;;;21.85;12.65;;;2.70;77.10;;;1.67;63.61;95431.16;5024916;28;20287;-88
2021/12/12 02:55:00;;;;;;;17.77;11.98;;;2.70;77.00;;;1.65;63.73;95424.44;5024672;28;20219;-88
2021/12/12 02:57:27;;;;;;;17.90;11.82;;;2.80;77.10;;;1.69;63.84;95429.25;5034705;28;20208;-87
2021/12/12 02:59:55;;;;;;;18.90;11.75;;;2.70;77.00;;;1.71;63.87;95429.13;5040341;28;20215;-88
2021/12/12 03:02:28;;;;;;;20.10;11.73;;;2.70;77.00;;;1.72;63.55;95433.34;5051902;28;20204;-88
2021/12/12 03:05:00;;;;;;;19.83;12.10;;;2.80;77.10;;;1.70;63.49;95430.91;5054346;28;20239;-88
2021/12/12 03:07:27;;;;;;;18.70;11.88;;;2.80;77.10;;;1.69;63.51;95433.63;5029454;28;20253;-88
2021/12/12 03:09:58;;;;;;;20.25;11.80;;;2.80;77.00;;;1.69;63.81;95431.84;5027307;28;20319;-87
2021/12/12 03:12:33;;;;;;;20.25;11.98;;;2.80;77.00;;;1.68;63.49;95424.22;5026288;28;20197;-88
2021/12/12 03:15:10;;;;;;;18.02;12.30;;;2.80;77.00;;;1.66;63.81;95426.94;5061175;28;20482;-87
2021/12/12 03:17:41;;;;;;;18.77;11.88;;;2.80;77.00;;;1.67;63.52;95423.41;5047099;28;20198;-87
2021/12/12 03:20:39;;;;;;;17.20;11.65;;;2.70;76.90;;;1.65;63.60;95427.88;5058536;28;20241;-88
2021/12/12 03:23:26;;;;;;;18.17;11.32;;;2.70;77.00;;;1.66;63.64;95433.84;5019138;28;20204;-88
2021/12/12 03:26:00;;;;;;;15.40;10.77;;;2.70;76.90;;;1.67;63.65;95440.66;5058009;28;20240;-88
2021/12/12 03:28:33;;;;;;;20.25;11.93;;;2.70;76.90;;;1.64;63.63;95446.09;5026606;28;20220;-88
2021/12/12 03:31:06;;;;;;;22.35;12.90;;;2.70;76.90;;;1.62;63.72;95435.84;5029295;28;20212;-88
2021/12/12 03:33:34;;;;;;;19.58;12.27;;;2.70;76.90;;;1.63;63.58;95439.28;5045237;28;20223;-88
2021/12/12 03:36:08;;;;;;;17.50;12.05;;;2.70;76.90;;;1.60;63.88;95436.00;5026659;28;20228;-87
2021/12/12 03:38:40;;;;;;;23.15;12.98;;;2.70;77.00;;;1.55;63.69;95437.28;5043470;28;20203;-87
2021/12/12 03:41:13;;;;;;;18.38;12.07;;;2.70;76.90;;;1.56;63.84;95454.44;5030385;28;20216;-88
2021/12/12 03:43:42;;;;;;;22.85;13.23;;;2.70;76.90;;;1.54;63.80;95449.41;5024977;28;20222;-88
2021/12/12 03:46:13;;;;;;;18.58;12.13;;;2.70;77.00;;;1.46;63.75;95432.88;5046423;28;20699;-87
2021/12/12 03:48:44;;;;;;;21.27;14.13;;;2.70;77.80;;;1.51;63.70;95457.41;5040743;28;20212;-87
2021/12/12 03:51:15;;;;;;;19.15;10.90;;;2.70;77.00;;;1.53;63.92;95462.47;5025332;28;20185;-87
2021/12/12 03:53:43;;;;;;;19.48;11.70;;;2.70;77.10;;;1.50;63.76;95458.38;5030706;28;20665;-87
2021/12/12 03:56:14;;;;;;;16.90;11.32;;;2.70;77.10;;;1.52;63.67;95463.41;5036119;28;20203;-87
2021/12/12 03:58:43;;;;;;;17.15;12.02;;;2.60;77.00;;;1.51;63.63;95461.75;5042185;28;20266;-87
2021/12/12 04:01:43;;;;;;;18.65;11.98;;;2.70;77.10;;;1.50;63.79;95466.13;5031439;28;20219;-88
2021/12/12 04:04:20;;;;;;;17.17;10.50;;;2.60;77.00;;;1.50;63.87;95466.13;5030255;28;20250;-89
2021/12/12 04:06:49;;;;;;;15.55;9.75;;;2.60;77.00;;;1.46;63.68;95456.13;5032207;28;20237;-88
2021/12/12 04:09:18;;;;;;;16.00;10.10;;;2.60;77.10;;;1.53;64.19;95465.84;5036467;28;20232;-88
2021/12/12 04:11:54;;;;;;;18.42;10.95;;;2.60;77.90;;;1.54;63.72;95471.88;5033835;28;20219;-88
2021/12/12 04:14:23;;;;;;;17.55;10.50;;;2.60;77.10;;;1.48;63.87;95462.00;5016454;28;20219;-89
2021/12/12 04:17:01;;;;;;;15.57;10.10;;;2.60;77.10;;;1.56;63.92;95481.16;5053554;28;20203;-88
2021/12/12 04:19:28;;;;;;;14.45;10.05;;;2.60;77.10;;;1.57;63.61;95489.72;5034450;28;20274;-88
2021/12/12 04:21:56;;;;;;;15.60;10.60;;;2.60;77.10;;;1.56;63.90;95496.66;5020176;28;20207;-88
2021/12/12 04:24:29;;;;;;;15.15;9.68;;;2.60;77.10;;;1.58;63.87;95509.44;5048871;28;20224;-89
2021/12/12 04:26:59;;;;;;;13.55;8.80;;;2.60;77.10;;;1.55;63.68;95507.09;5035570;28;20180;-89
2021/12/12 04:29:34;;;;;;;13.60;9.10;;;2.60;77.10;;;1.58;63.98;95518.03;5052844;28;20223;-88
2021/12/12 04:32:08;;;;;;;16.65;10.15;;;2.60;77.20;;;1.59;64.16;95524.84;5066123;28;20254;-88
2021/12/12 04:34:44;;;;;;;15.68;10.13;;;2.70;77.30;;;1.61;63.93;95514.38;5049327;28;20227;-87
2021/12/12 04:37:12;;;;;;;15.52;10.13;;;2.70;77.20;;;1.62;63.88;95517.78;5022024;28;20198;-88
2021/12/12 04:39:46;;;;;;;14.25;9.60;;;2.70;77.30;;;1.65;63.76;95520.94;5051087;28;20239;-88
2021/12/12 04:42:37;;;;;;;14.18;9.25;;;2.70;77.30;;;1.63;64.06;95527.19;5029980;28;20200;-88
2021/12/12 04:45:30;;;;;;;16.30;9.65;;;2.70;77.30;;;1.66;63.75;95532.94;5076490;28;20266;-88
2021/12/12 04:51:09;;;;;;;13.73;9.02;;;2.70;77.30;;;1.70;63.81;95534.34;5071287;28;20220;-88
2021/12/12 04:54:15;;;;;;;14.23;9.05;;;2.70;77.20;;;1.72;63.69;95516.94;5003535;28;20192;-88
2021/12/12 04:56:56;;;;;;;12.30;8.52;;;2.70;77.30;;;1.75;64.16;95537.38;5049631;28;20258;-89
2021/12/12 04:59:42;;;;;;;12.75;8.50;;;2.80;77.40;;;1.75;63.69;95544.31;5013831;28;20541;-88
2021/12/12 05:02:18;;;;;;;14.48;10.00;;;2.80;77.30;;;1.76;63.88;95541.59;5035253;28;20196;-89
2021/12/12 05:05:25;;;;;;;14.20;9.55;;;2.80;77.30;;;1.75;64.06;95547.72;5051479;28;20285;-90
2021/12/12 05:08:21;;;;;;;13.85;8.77;;;2.80;77.30;;;1.78;63.80;95558.78;5035799;28;20191;-89
2021/12/12 05:11:00;;;;;;;13.35;9.32;;;2.80;77.30;;;1.80;64.14;95554.31;5036096;28;20227;-90
2021/12/12 05:13:41;;;;;;;13.52;9.63;;;2.80;77.30;;;1.75;63.94;95542.53;5020380;28;20572;-88
2021/12/12 05:16:16;;;;;;;14.13;9.55;;;2.80;77.30;;;1.82;64.00;95558.41;5020217;28;20208;-89
2021/12/12 05:18:51;;;;;;;15.02;10.15;;;2.80;77.20;;;1.83;63.77;95551.47;5020234;28;20263;-89
2021/12/12 05:21:32;;;;;;;14.13;9.05;;;2.90;77.40;;;1.86;63.87;95553.81;5020261;28;20207;-90
2021/12/12 05:24:04;;;;;;;13.82;9.55;;;2.90;77.30;;;1.87;63.90;95555.47;5052910;28;20224;-89
2021/12/12 05:26:43;;;;;;;14.07;9.40;;;2.90;77.30;;;1.87;63.92;95561.44;5070027;28;20196;-88
2021/12/12 05:29:20;;;;;;;14.05;9.88;;;2.90;77.30;;;1.86;63.99;95553.81;5051973;28;20236;-89
2021/12/12 05:31:52;;;;;;;14.95;9.43;;;2.90;77.30;;;1.83;63.80;95548.88;5050547;28;20199;-87
2021/12/12 05:34:27;;;;;;;15.52;9.82;;;2.90;77.30;;;1.85;64.07;95552.97;5054266;28;20318;-88
2021/12/12 05:36:57;;;;;;;14.25;9.48;;;2.90;77.30;;;1.90;64.03;95562.97;5037828;28;20196;-88
2021/12/12 05:39:25;;;;;;;11.95;8.27;;;2.90;77.30;;;1.91;63.98;95552.50;5053188;28;20227;-89
2021/12/12 05:41:55;;;;;;;14.25;8.82;;;2.90;77.30;;;1.94;63.88;95553.19;5037395;28;20204;-89
2021/12/12 05:44:25;;;;;;;13.05;9.48;;;2.90;77.30;;;1.88;64.17;95560.50;5021410;28;20673;-89
2021/12/12 05:46:59;;;;;;;14.88;9.55;;;2.90;77.30;;;1.90;63.54;95556.03;5020766;28;20685;-88
2021/12/12 05:49:28;;;;;;;13.05;9.05;;;3.00;77.40;;;1.89;64.02;95569.91;5037406;28;20277;-90
2021/12/12 05:51:55;;;;;;;15.43;9.70;;;3.00;77.40;;;1.94;64.04;95563.53;5033467;28;20193;-89
2021/12/12 05:54:30;;;;;;;12.20;8.65;;;3.00;77.40;;;1.94;63.68;95559.19;5052159;28;20223;-89
2021/12/12 05:56:59;;;;;;;14.10;9.80;;;3.00;77.50;;;1.94;64.06;95564.34;5053412;28;20184;-88
2021/12/12 05:59:27;;;;;;;14.18;9.80;;;3.10;77.50;;;1.92;63.90;95566.25;5037316;28;20306;-89
2021/12/12 06:01:57;;;;;;;15.65;10.85;;;3.00;77.50;;;1.92;64.14;95571.44;5036907;28;20200;-89
2021/12/12 06:04:25;;;;;;;15.07;9.73;;;3.00;77.50;;;1.96;64.14;95579.78;5037305;28;20220;-88
2021/12/12 06:06:53;;;;;;;13.13;9.25;;;3.00;77.50;;;1.98;64.27;95572.69;5036221;28;20192;-87
2021/12/12 06:09:21;;;;;;;14.32;9.38;;;3.00;77.50;;;1.96;64.22;95570.25;5037090;28;20817;-88
2021/12/12 06:11:52;;;;;;;14.82;9.75;;;3.00;77.50;;;1.97;63.98;95571.06;5036827;28;20199;-88
2021/12/12 06:14:22;;;;;;;15.40;10.13;;;3.00;77.50;;;2.02;64.44;95579.28;5033695;28;20224;-89
2021/12/12 06:16:50;;;;;;;16.27;9.57;;;3.10;77.60;;;2.00;64.02;95574.25;5062022;28;20195;-89
2021/12/12 06:19:23;;;;;;;14.65;9.32;;;3.10;78.40;;;2.02;64.46;95572.34;5037041;28;20216;-87
2021/12/12 06:21:55;;;;;;;15.27;9.57;;;3.00;77.50;;;1.98;64.48;95575.28;5053099;28;20202;-88
2021/12/12 06:24:25;;;;;;;12.95;8.93;;;3.10;77.50;;;1.98;64.37;95576.13;5062651;28;20224;-88
2021/12/12 06:26:55;;;;;;;14.32;9.32;;;3.10;77.50;;;2.00;64.38;95573.41;5036853;28;20258;-86
2021/12/12 06:29:23;;;;;;;12.48;9.02;;;3.10;77.50;;;2.05;64.33;95579.03;5036886;28;20644;-87
2021/12/12 06:31:52;;;;;;;13.82;8.23;;;3.10;77.50;;;2.08;64.31;95591.72;5053072;28;20282;-86
2021/12/12 06:34:20;;;;;;;12.70;9.18;;;3.10;77.60;;;2.09;64.19;95583.03;5035653;28;20231;-87
2021/12/12 06:36:53;;;;;;;15.73;11.13;;;3.10;77.60;;;2.07;64.35;95584.91;5049172;28;20196;-87
2021/12/12 06:39:21;;;;;;;15.82;10.73;;;3.10;77.60;;;2.05;64.37;95574.69;5032722;28;20224;-87
2021/12/12 06:41:50;;;;;;;15.95;10.57;;;3.10;77.60;;;2.09;64.50;95593.38;5029955;28;20197;-86
2021/12/12 06:44:17;;;;;;;14.48;10.43;;;3.10;77.60;;;2.09;64.43;95588.19;5049312;28;20262;-87
2021/12/12 06:46:45;;;;;;;16.75;10.65;;;3.10;77.60;;;2.10;64.10;95596.78;5054570;28;20228;-87
2021/12/12 06:49:16;;;;;;;13.98;9.98;;;3.10;77.60;;;2.11;64.24;95585.47;5032584;28;20219;-87
2021/12/12 06:51:58;;;;;;;14.77;9.95;;;3.10;77.60;;;2.12;64.27;95590.53;4997752;28;20205;-87
2021/12/12 06:54:30;;;;;;;18.55;10.90;;;3.10;77.60;;;2.13;64.20;95591.38;5013824;28;20299;-87
2021/12/12 06:57:02;;;;;;;16.10;11.00;;;3.10;77.60;;;2.10;64.64;95592.44;5039173;28;20242;-86
2021/12/12 06:59:33;;;;;;;17.58;10.98;;;3.20;77.70;;;2.13;64.54;95592.19;5034586;28;20235;-84
2021/12/12 07:02:02;;;;;;;13.93;9.50;;;3.20;77.70;;;2.13;64.39;95587.00;5039725;28;20204;-87
2021/12/12 07:04:31;;;;;;;15.77;10.30;;;3.20;77.80;;;2.19;63.95;95596.06;5024556;28;20220;-86
2021/12/12 07:07:04;;;;;;;15.95;10.00;;;3.20;77.70;;;2.22;64.43;95593.19;5029689;28;20192;-86
2021/12/12 07:09:33;;;;;;;15.07;9.48;;;3.20;77.80;;;2.18;64.36;95600.38;5041577;28;20232;-86
2021/12/12 07:12:05;;;;;;;14.07;9.50;;;3.20;77.80;;;2.23;64.28;95600.88;5023360;28;20184;-85
2021/12/12 07:14:34;;;;;;;15.95;10.15;;;3.20;77.80;;;2.23;64.39;95606.03;5056344;28;20287;-86
2021/12/12 07:17:02;;;;;;;18.38;11.45;;;3.30;77.80;;;2.24;64.33;95606.84;5025033;28;20286;-86
2021/12/12 07:19:30;;;;;;;15.52;10.25;;;3.30;77.80;;;2.26;64.38;95601.53;5057369;28;20228;-86
2021/12/12 07:21:59;;;;;;;17.00;10.52;;;3.30;77.80;;;2.26;64.38;95604.97;5026847;28;20257;-86
2021/12/12 07:24:28;;;;;;;15.77;9.82;;;3.30;77.90;;;2.29;64.34;95609.88;5030983;28;20247;-86
2021/12/12 07:26:58;;;;;;;17.73;10.50;;;3.30;77.80;;;2.33;64.45;95615.63;5044621;28;20196;-85
2021/12/12 07:29:29;;;;;;;16.52;10.98;;;3.30;77.80;;;2.35;64.33;95629.28;5046905;28;20226;-85
2021/12/12 07:31:58;;;;;;;15.82;10.45;;;3.30;77.90;;;2.37;64.66;95628.22;5016236;28;20200;-85
2021/12/12 07:34:25;;;;;;;16.10;11.05;;;3.30;77.90;;;2.39;64.81;95633.25;5033403;28;20216;-85
2021/12/12 07:36:59;;;;;;;17.13;11.32;;;3.40;78.00;;;2.39;64.67;95631.50;5048096;28;20829;-85
2021/12/12 07:39:30;;;;;;;17.52;11.60;;;3.40;78.00;;;2.34;64.75;95627.63;5042693;28;20216;-86
2021/12/12 07:42:01;;;;;;;15.18;9.63;;;3.40;78.00;;;2.38;64.57;95626.44;5036932;28;20192;-89
2021/12/12 07:44:33;;;;;;;16.38;10.23;;;3.40;78.10;;;2.44;64.67;95630.31;5032886;28;20216;-89
2021/12/12 07:47:01;;;;;;;14.20;9.82;;;3.40;78.10;;;2.48;65.01;95634.28;5035827;28;20195;-90
2021/12/12 07:49:34;;;;;;;16.98;10.52;;;3.40;78.10;;;2.44;64.69;95627.72;5024754;28;20228;-88
2021/12/12 07:52:04;;;;;;;14.63;10.27;;;3.40;78.20;;;2.47;64.71;95641.25;5030184;28;20192;-89
2021/12/12 07:54:34;;;;;;;17.45;10.40;;;3.50;79.10;;;2.53;65.01;95645.13;5068644;28;20215;-90
2021/12/12 07:57:03;;;;;;;16.33;11.27;;;3.50;78.30;;;2.54;64.95;95634.63;5051756;28;20230;-89
2021/12/12 07:59:32;;;;;;;14.40;10.15;;;3.50;78.30;;;2.58;64.57;95637.78;5037570;28;20307;-89
2021/12/12 08:02:02;;;;;;;17.92;11.43;;;3.70;78.50;;;2.64;64.81;95652.84;5032658;28;20669;-89
2021/12/12 08:04:31;;;;;;;15.23;10.30;;;3.60;78.40;;;2.67;64.95;95654.34;5052919;28;20701;-88
2021/12/12 08:07:00;;;;;;;16.98;10.65;;;3.60;78.30;;;2.68;64.89;95659.41;5037601;28;20204;-88
2021/12/12 08:09:29;;;;;;;16.27;11.25;;;3.60;78.30;;;2.70;64.98;95660.09;5038386;28;20732;-88
2021/12/12 08:11:57;;;;;;;15.75;11.13;;;3.60;78.30;;;2.70;64.86;95652.34;5037966;28;20200;-89
2021/12/12 08:14:28;;;;;;;17.02;11.50;;;3.60;78.40;;;2.72;64.98;95659.97;5019296;28;20251;-89
2021/12/12 08:16:57;;;;;;;15.10;10.73;;;3.60;78.40;;;2.77;64.60;95655.25;5033030;28;20189;-89
2021/12/12 08:19:26;;;;;;;15.30;10.52;;;3.70;78.40;;;2.82;64.83;95660.03;5058050;28;20242;-88
2021/12/12 08:22:00;;;;;;;15.68;11.38;;;3.80;78.50;;;2.83;64.80;95648.75;5038690;28;20192;-88
2021/12/12 08:24:31;;;;;;;17.45;11.38;;;3.70;78.50;;;2.93;64.80;95659.16;5070288;28;20269;-90
2021/12/12 08:27:00;;;;;;;15.82;10.57;;;3.80;78.60;;;2.99;64.65;95651.72;5039510;28;20544;-89
2021/12/12 08:29:28;;;;;;;16.73;10.15;;;3.80;78.60;;;3.07;65.00;95658.06;5038902;28;20219;-90
2021/12/12 08:31:55;;;;;;;15.82;10.90;;;3.90;78.70;;;3.07;64.65;95651.09;5072361;28;20230;-89
2021/12/12 08:34:25;;;;;;;15.65;10.90;;;3.90;78.60;;;3.13;64.46;95650.56;5038842;28;20216;-89
2021/12/12 08:36:58;;;;;;;16.73;11.20;;;4.00;78.60;;;3.21;64.35;95649.97;5021016;28;20270;-89
2021/12/12 08:39:27;;;;;;;18.35;11.43;;;4.00;78.50;;;3.28;64.41;95653.66;5038811;28;20224;-89
2021/12/12 08:41:58;;;;;;;17.35;11.55;;;4.00;78.40;;;3.25;64.18;95651.34;5038359;28;20659;-89
2021/12/12 08:44:29;;;;;;;17.17;12.25;;;4.10;78.40;;;3.31;64.35;95656.00;5022771;28;20216;-89
2021/12/12 08:46:59;;;;;;;15.05;10.65;;;4.10;78.40;;;3.38;64.35;95658.88;5055094;28;20552;-89
2021/12/12 08:49:32;;;;;;;17.10;11.43;;;4.20;78.40;;;3.37;64.17;95657.28;5035488;28;20240;-87
2021/12/12 08:52:06;;;;;;;18.27;12.07;;;4.20;78.30;;;3.40;64.28;95653.59;5034701;28;20215;-89
2021/12/12 08:54:36;;;;;;;19.20;12.10;;;4.30;78.30;;;3.43;63.88;95663.69;5054593;28;20215;-88
2021/12/12 08:57:37;;;;;;;17.17;11.55;;;4.30;78.10;;;3.42;63.89;95664.63;5045431;28;20197;-85
2021/12/12 09:00:31;;;;;;;16.73;11.52;;;4.30;78.10;;;3.46;64.30;95659.06;5063154;28;20265;-88
2021/12/12 09:03:03;;;;;;;15.85;11.13;;;4.30;78.10;;;3.47;64.04;95667.69;5069640;28;20192;-88
2021/12/12 09:05:35;;;;;;;17.13;11.85;;;4.40;78.20;;;3.51;64.33;95669.88;5038266;28;20223;-88
2021/12/12 09:08:40;;;;;;;18.25;12.32;;;4.50;78.20;;;3.55;64.43;95674.81;5024076;28;20188;-87
2021/12/12 09:11:23;;;;;;;15.52;10.60;;;4.40;78.10;;;3.58;64.16;95680.56;5052978;28;20216;-88
2021/12/12 09:14:15;;;;;;;17.20;11.57;;;4.40;78.20;;;3.62;63.91;95692.31;5035856;28;20208;-87
2021/12/12 09:16:48;;;;;;;17.38;11.32;;;4.50;78.20;;;3.69;64.24;95675.28;5050365;28;20200;-88
2021/12/12 09:19:32;;;;;;;18.45;12.25;;;4.50;78.30;;;3.68;64.21;95672.81;5018541;28;20526;-89
2021/12/12 09:22:14;;;;;;;16.95;11.55;;;4.50;78.20;;;3.84;64.21;95688.75;5036202;28;20196;-87
2021/12/12 09:25:22;;;;;;;17.25;11.68;;;4.60;78.30;;;3.93;64.14;95675.91;5051614;28;20216;-89
2021/12/12 09:28:03;;;;;;;20.52;11.82;;;4.70;78.40;;;4.08;64.33;95684.19;5034855;28;20519;-88
2021/12/12 09:30:30;;;;;;;18.20;12.07;;;4.70;78.40;;;4.16;63.95;95685.16;5023945;28;20228;-88
2021/12/12 09:33:55;;;;;;;17.30;11.85;;;4.80;78.50;;;4.27;63.55;95691.19;5032652;28;20201;-90
2021/12/12 09:36:33;;;;;;;18.92;12.50;;;4.90;78.30;;;4.28;63.49;95692.81;4974478;28;20195;-90
2021/12/12 09:39:20;;;;;;;18.88;12.70;;;5.00;78.20;;;4.28;63.59;95672.06;5057855;28;20216;-89
2021/12/12 09:42:11;;;;;;;18.90;12.05;;;5.10;78.10;;;4.32;63.15;95691.59;5076172;28;20681;-89
2021/12/12 09:45:13;;;;;;;18.88;12.80;;;5.10;77.90;;;4.28;63.12;95685.03;5050950;28;20621;-88
2021/12/12 09:51:14;;;;;;;19.27;13.63;;;5.10;77.70;;;4.27;63.08;95679.03;5018263;28;20196;-89
2021/12/12 09:51:22;;;;;;;19.95;12.73;;;5.10;77.70;;;4.28;63.32;95661.66;5035199;28;20282;-88
2021/12/12 09:54:15;;;;;;;21.33;13.65;;;5.10;77.70;;;4.34;63.25;95676.72;5034024;28;20262;-88
2021/12/12 09:57:01;;;;;;;24.02;14.45;;;5.20;77.70;;;4.38;62.97;95670.31;5079255;28;20269;-89
2021/12/12 10:00:03;;;;;;;19.92;13.70;;;5.20;77.70;;;4.41;63.14;95677.81;5053075;28;20257;-90
2021/12/12 10:02:41;;;;;;;21.08;13.32;;;5.20;77.70;;;4.53;63.23;95672.50;5037846;28;20235;-88
2021/12/12 10:05:43;;;;;;;20.25;12.90;;;5.30;78.00;;;4.60;63.28;95669.22;5036238;28;20220;-89
2021/12/12 10:09:01;;;;;;;19.23;12.18;;;5.30;77.80;;;4.66;63.04;95665.25;5053210;28;20187;-89
2021/12/12 10:11:50;;;;;;;22.75;13.77;;;5.40;77.80;;;4.72;62.95;95679.50;5033743;28;20213;-89
2021/12/12 10:14:28;;;;;;;20.80;13.77;;;5.40;77.70;;;4.69;62.54;95674.53;5050463;28;20221;-89
2021/12/12 10:17:35;;;;;;;19.25;12.43;;;5.50;77.50;;;4.65;62.38;95674.00;5019208;28;20200;-89
2021/12/12 10:20:23;;;;;;;19.52;13.23;;;5.50;78.10;;;4.55;62.29;95668.78;5036818;28;20240;-90
2021/12/12 10:23:15;;;;;;;21.48;12.77;;;5.50;77.20;;;4.54;62.69;95671.53;5053691;28;20200;-88
2021/12/12 10:25:53;;;;;;;17.73;12.10;;;5.40;77.20;;;4.54;62.60;95668.94;5069878;28;20290;-89
2021/12/12 10:28:39;;;;;;;19.38;11.95;;;5.40;77.30;;;4.60;62.60;95681.38;5035955;28;20261;-89
2021/12/12 10:31:21;;;;;;;21.10;13.73;;;5.40;77.30;;;4.61;62.93;95668.28;5036786;28;20288;-89
2021/12/12 10:34:02;;;;;;;21.67;13.75;;;5.40;77.50;;;4.71;62.74;95681.28;5055343;28;20202;-89
2021/12/12 10:36:38;;;;;;;19.98;12.88;;;5.50;77.40;;;4.71;63.04;95681.28;5031894;28;20210;-90
2021/12/12 10:39:19;;;;;;;18.38;12.50;;;5.50;77.60;;;4.83;62.86;95686.34;5020314;28;20284;-88
2021/12/12 10:42:02;;;;;;;21.75;12.90;;;5.50;77.60;;;4.87;62.68;95687.69;5036200;28;20199;-89
2021/12/12 10:44:37;;;;;;;18.90;12.27;;;5.60;77.60;;;4.97;62.63;95689.34;5035635;28;20269;-89
2021/12/12 10:47:33;;;;;;;17.67;12.70;;;5.60;77.70;;;5.04;62.67;95689.63;5032119;28;20204;-90
2021/12/12 10:50:04;;;;;;;16.83;12.23;;;5.70;77.60;;;5.05;62.20;95683.44;5019373;28;20224;-89
2021/12/12 10:52:45;;;;;;;17.05;12.05;;;5.70;77.50;;;5.04;62.15;95680.97;5036395;28;20559;-89
2021/12/12 10:55:19;;;;;;;19.65;12.75;;;5.70;77.30;;;5.05;62.12;95685.22;5035723;28;20227;-90
2021/12/12 10:58:16;;;;;;;18.10;12.75;;;5.80;77.30;;;5.01;62.20;95689.06;5035224;28;20226;-89
2021/12/12 11:00:51;;;;;;;20.38;13.40;;;5.80;77.00;;;4.95;62.24;95677.44;5035799;28;20216;-89
2021/12/12 11:03:53;;;;;;;20.20;13.35;;;5.80;77.00;;;4.94;62.14;95676.63;5033351;28;20692;-90
2021/12/12 11:06:31;;;;;;;17.77;12.80;;;5.80;77.00;;;4.98;61.86;95679.78;5009379;28;20215;-90
2021/12/12 11:09:17;;;;;;;19.52;12.90;;;5.80;76.90;;;5.02;62.14;95681.13;5032453;28;20388;-87
2021/12/12 11:12:24;;;;;;;17.83;12.25;;;5.80;77.10;;;5.06;62.35;95676.47;5059621;28;20239;-87
2021/12/12 11:15:08;;;;;;;18.45;13.18;;;5.80;76.90;;;5.06;61.80;95685.06;5032866;28;20217;-87